createdAt,value
2022-12-22T00:02:11.283Z,5.20
2022-12-22T00:04:59.782Z,5.10
2022-12-22T00:07:45.619Z,5.10
2022-12-22T00:10:33.073Z,5.10
2022-12-22T00:13:18.475Z,5.10
2022-12-22T00:16:04.459Z,5.20
2022-12-22T00:18:49.841Z,5.20
2022-12-22T00:21:37.279Z,5.30
2022-12-22T00:24:24.961Z,5.30
2022-12-22T00:27:11.705Z,5.30
2022-12-22T00:30:00.439Z,5.30
2022-12-22T00:32:52.601Z,5.30
2022-12-22T00:35:42.198Z,5.30
2022-12-22T00:38:33.377Z,5.40
2022-12-22T00:41:20.770Z,5.30
2022-12-22T00:44:07.881Z,5.30
2022-12-22T00:46:55.437Z,5.30
2022-12-22T00:49:45.332Z,5.30
2022-12-22T00:52:31.615Z,5.20
2022-12-22T00:55:17.618Z,5.10
2022-12-22T00:58:03.860Z,5.10
2022-12-22T01:00:50.838Z,5.10
2022-12-22T01:03:37.446Z,5.20
2022-12-22T01:06:27.562Z,5.20
2022-12-22T01:09:13.453Z,5.20
2022-12-22T01:12:00.408Z,5.20
2022-12-22T01:14:46.178Z,5.20
2022-12-22T01:17:33.226Z,5.20
2022-12-22T01:20:18.920Z,5.20
2022-12-22T01:23:04.802Z,5.10
2022-12-22T01:25:50.287Z,5.00
2022-12-22T01:28:36.452Z,5.00
2022-12-22T01:31:35.674Z,5.00
2022-12-22T01:34:22.800Z,4.90
2022-12-22T01:37:10.628Z,4.90
2022-12-22T01:39:56.352Z,5.00
2022-12-22T01:42:42.197Z,4.90
2022-12-22T01:45:40.767Z,4.90
2022-12-22T01:48:30.251Z,4.80
2022-12-22T01:51:20.597Z,4.80
2022-12-22T01:54:06.717Z,4.80
2022-12-22T01:56:52.331Z,4.80
2022-12-22T01:59:37.704Z,4.80
2022-12-22T02:02:25.351Z,4.80
2022-12-22T02:05:12.350Z,4.80
2022-12-22T02:08:16.309Z,4.80
2022-12-22T02:11:29.187Z,4.80
2022-12-22T02:14:30.175Z,4.90
2022-12-22T02:17:28.524Z,4.90
2022-12-22T02:20:49.187Z,5.00
2022-12-22T02:23:46.314Z,5.10
2022-12-22T02:26:43.724Z,5.10
2022-12-22T02:29:32.626Z,5.20
2022-12-22T02:32:19.524Z,5.20
2022-12-22T02:35:05.264Z,5.20
2022-12-22T02:38:00.016Z,5.30
2022-12-22T02:40:52.090Z,5.30
2022-12-22T02:43:54.351Z,5.20
2022-12-22T02:46:47.582Z,5.20
2022-12-22T02:49:37.895Z,5.20
2022-12-22T02:52:29.855Z,5.20
2022-12-22T02:55:17.928Z,5.20
2022-12-22T02:58:03.676Z,5.20
2022-12-22T03:00:50.192Z,5.20
2022-12-22T03:03:36.268Z,5.30
2022-12-22T03:06:21.971Z,5.30
2022-12-22T03:09:07.664Z,5.40
2022-12-22T03:11:54.830Z,5.40
2022-12-22T03:14:41.298Z,5.50
2022-12-22T03:17:28.942Z,5.60
2022-12-22T03:20:16.917Z,5.60
2022-12-22T03:23:02.462Z,5.70
2022-12-22T03:25:48.067Z,5.70
2022-12-22T03:28:16.646Z,5.80
2022-12-22T03:30:45.755Z,5.70
2022-12-22T03:33:15.057Z,5.80
2022-12-22T03:35:45.164Z,5.80
2022-12-22T03:38:13.127Z,5.80
2022-12-22T03:40:41.088Z,5.80
2022-12-22T03:43:29.601Z,5.90
2022-12-22T03:46:27.622Z,6.10
2022-12-22T03:49:12.603Z,6.20
2022-12-22T03:51:45.367Z,6.20
2022-12-22T03:54:14.840Z,6.30
2022-12-22T03:56:43.425Z,6.30
2022-12-22T03:59:12.937Z,6.40
2022-12-22T04:01:43.555Z,6.50
2022-12-22T04:04:14.112Z,6.50
2022-12-22T04:06:42.217Z,6.60
2022-12-22T04:09:10.519Z,6.60
2022-12-22T04:11:56.226Z,6.60
2022-12-22T04:14:28.094Z,6.60
2022-12-22T04:17:01.577Z,6.60
2022-12-22T04:19:31.102Z,6.60
2022-12-22T04:22:00.355Z,6.60
2022-12-22T04:24:28.531Z,6.60
2022-12-22T04:26:57.046Z,6.60
2022-12-22T04:29:25.245Z,6.50
2022-12-22T04:31:53.306Z,6.60
2022-12-22T04:34:21.469Z,6.60
2022-12-22T04:36:57.637Z,6.60
2022-12-22T04:39:30.301Z,6.60
2022-12-22T04:41:58.646Z,6.70
2022-12-22T04:44:26.594Z,6.70
2022-12-22T04:46:56.014Z,6.70
2022-12-22T04:49:31.522Z,6.70
2022-12-22T04:52:01.914Z,6.60
2022-12-22T04:54:29.947Z,6.70
2022-12-22T04:56:57.887Z,6.60
2022-12-22T04:59:26.240Z,6.70
2022-12-22T05:01:54.840Z,6.70
2022-12-22T05:04:23.998Z,6.80
2022-12-22T05:06:54.556Z,6.80
2022-12-22T05:09:26.070Z,6.90
2022-12-22T05:11:56.334Z,6.90
2022-12-22T05:14:26.434Z,7.00
2022-12-22T05:16:57.014Z,6.90
2022-12-22T05:19:30.761Z,6.90
2022-12-22T05:22:01.240Z,6.90
2022-12-22T05:24:30.565Z,6.90
2022-12-22T05:26:58.597Z,6.80
2022-12-22T05:29:26.594Z,6.80
2022-12-22T05:31:54.602Z,6.80
2022-12-22T05:34:25.665Z,6.90
2022-12-22T05:36:53.611Z,6.80
2022-12-22T05:39:21.609Z,6.90
2022-12-22T05:41:50.856Z,6.80
2022-12-22T05:44:18.893Z,6.80
2022-12-22T05:46:46.955Z,6.80
2022-12-22T05:49:14.954Z,6.70
2022-12-22T05:51:43.177Z,6.80
2022-12-22T05:54:11.721Z,6.70
2022-12-22T05:56:47.195Z,6.70
2022-12-22T05:59:18.212Z,6.70
2022-12-22T06:01:47.496Z,6.70
2022-12-22T06:04:15.851Z,6.80
2022-12-22T06:06:43.954Z,6.80
2022-12-22T06:09:11.927Z,6.90
2022-12-22T06:11:39.917Z,6.90
2022-12-22T06:14:08.889Z,7.00
2022-12-22T06:16:39.353Z,7.00
2022-12-22T06:19:07.511Z,7.00
2022-12-22T06:21:36.223Z,7.00
2022-12-22T06:24:05.978Z,7.00
2022-12-22T06:26:34.165Z,7.00
2022-12-22T06:29:06.677Z,7.00
2022-12-22T06:31:35.565Z,7.00
2022-12-22T06:34:13.092Z,7.00
2022-12-22T06:36:41.135Z,7.10
2022-12-22T06:39:09.070Z,7.00
2022-12-22T06:41:54.436Z,6.90
2022-12-22T06:44:22.490Z,6.80
2022-12-22T06:46:50.850Z,6.80
2022-12-22T06:49:34.976Z,6.80
2022-12-22T06:52:03.446Z,6.80
2022-12-22T06:54:31.386Z,6.70
2022-12-22T06:56:59.441Z,6.60
2022-12-22T06:59:28.574Z,6.80
2022-12-22T07:01:56.895Z,6.80
2022-12-22T07:04:28.625Z,6.80
2022-12-22T07:06:56.569Z,6.90
2022-12-22T07:09:24.641Z,6.90
2022-12-22T07:11:52.691Z,7.10
2022-12-22T07:14:23.444Z,7.20
2022-12-22T07:16:51.735Z,7.30
2022-12-22T07:19:22.642Z,7.40
2022-12-22T07:21:52.175Z,7.50
2022-12-22T07:24:24.941Z,7.50
2022-12-22T07:26:53.415Z,7.60
2022-12-22T07:29:21.356Z,7.80
2022-12-22T07:31:51.618Z,7.90
2022-12-22T07:34:20.709Z,8.00
2022-12-22T07:36:48.882Z,8.00
2022-12-22T07:39:20.503Z,8.00
2022-12-22T07:42:05.831Z,8.00
2022-12-22T07:44:33.823Z,7.90
2022-12-22T07:47:02.984Z,8.00
2022-12-22T07:49:48.561Z,7.90
2022-12-22T07:52:17.943Z,7.80
2022-12-22T07:54:47.139Z,7.70
2022-12-22T07:57:16.736Z,7.60
2022-12-22T07:59:44.718Z,7.50
2022-12-22T08:02:13.355Z,7.60
2022-12-22T08:04:43.795Z,7.70
2022-12-22T08:07:13.228Z,7.80
2022-12-22T08:09:41.407Z,7.80
2022-12-22T08:12:10.707Z,7.90
2022-12-22T08:14:38.634Z,8.10
2022-12-22T08:17:06.630Z,8.10
2022-12-22T08:19:39.234Z,8.20
2022-12-22T08:22:07.304Z,8.20
2022-12-22T08:24:35.477Z,8.30
2022-12-22T08:27:07.361Z,8.50
2022-12-22T08:29:41.325Z,8.90
2022-12-22T08:32:09.412Z,9.20
2022-12-22T08:34:37.423Z,9.40
2022-12-22T08:37:08.394Z,9.60
2022-12-22T08:39:41.099Z,9.90
2022-12-22T08:42:12.452Z,10.10
2022-12-22T08:44:41.818Z,10.30
2022-12-22T08:47:16.448Z,10.30
2022-12-22T08:49:45.077Z,10.40
2022-12-22T08:52:18.764Z,10.40
2022-12-22T08:54:47.202Z,10.30
2022-12-22T08:57:15.195Z,10.40
2022-12-22T08:59:48.156Z,10.60
2022-12-22T09:02:16.463Z,10.80
2022-12-22T09:04:45.896Z,11.10
2022-12-22T09:07:13.822Z,11.10
2022-12-22T09:09:42.807Z,11.00
2022-12-22T09:12:10.976Z,10.90
2022-12-22T09:14:40.089Z,10.80
2022-12-22T09:17:09.494Z,10.80
2022-12-22T09:19:39.088Z,10.60
2022-12-22T09:22:07.063Z,10.70
2022-12-22T09:24:35.108Z,10.60
2022-12-22T09:27:04.541Z,10.50
2022-12-22T09:29:32.571Z,10.40
2022-12-22T09:32:00.668Z,10.50
2022-12-22T09:34:31.504Z,10.60
2022-12-22T09:36:59.572Z,10.70
2022-12-22T09:39:29.457Z,10.80
2022-12-22T09:41:59.422Z,10.70
2022-12-22T09:44:30.984Z,10.80
2022-12-22T09:47:01.708Z,10.70
2022-12-22T09:49:31.290Z,10.60
2022-12-22T09:52:02.142Z,10.40
2022-12-22T09:54:31.148Z,10.40
2022-12-22T09:57:02.296Z,10.60
2022-12-22T09:59:32.709Z,10.90
2022-12-22T10:02:21.112Z,11.10
2022-12-22T10:05:03.192Z,11.40
2022-12-22T10:07:36.459Z,11.50
2022-12-22T10:10:09.239Z,11.70
2022-12-22T10:12:37.503Z,12.20
2022-12-22T10:15:12.374Z,12.70
2022-12-22T10:17:42.238Z,13.00
2022-12-22T10:20:25.478Z,13.00
2022-12-22T10:22:56.026Z,12.80
2022-12-22T10:28:26.503Z,12.60
2022-12-22T10:31:15.301Z,12.40
2022-12-22T10:33:47.419Z,12.30
2022-12-22T10:36:23.018Z,12.30
2022-12-22T10:39:10.466Z,12.10
2022-12-22T10:41:41.492Z,11.90
2022-12-22T10:44:19.800Z,11.80
2022-12-22T10:46:50.044Z,11.70
2022-12-22T10:49:22.371Z,11.60
2022-12-22T10:51:55.245Z,11.60
2022-12-22T10:54:35.276Z,11.60
2022-12-22T10:57:21.864Z,11.70
2022-12-22T10:59:53.167Z,11.70
2022-12-22T11:02:38.055Z,11.70
2022-12-22T11:05:09.574Z,11.70
2022-12-22T11:07:40.777Z,11.80
2022-12-22T11:10:18.934Z,11.90
2022-12-22T11:13:03.551Z,11.80
2022-12-22T11:15:39.895Z,11.90
2022-12-22T11:18:22.607Z,11.90
2022-12-22T11:21:00.655Z,11.70
2022-12-22T11:23:37.446Z,11.40
2022-12-22T11:26:12.717Z,11.30
2022-12-22T11:28:57.724Z,11.10
2022-12-22T11:31:43.641Z,11.10
2022-12-22T11:34:28.945Z,10.90
2022-12-22T11:37:06.844Z,10.90
2022-12-22T11:39:44.499Z,10.80
2022-12-22T11:42:28.584Z,10.80
2022-12-22T11:45:08.647Z,10.60
2022-12-22T11:47:44.238Z,10.60
2022-12-22T11:51:00.075Z,10.50
2022-12-22T11:53:36.703Z,10.30
2022-12-22T11:56:19.792Z,10.30
2022-12-22T11:59:02.616Z,10.30
2022-12-22T12:01:53.721Z,10.30
2022-12-22T12:04:41.151Z,10.50
2022-12-22T12:07:28.320Z,10.60
2022-12-22T12:10:08.078Z,10.80
2022-12-22T12:12:46.960Z,10.90
2022-12-22T12:15:28.172Z,10.90
2022-12-22T12:18:08.864Z,10.90
2022-12-22T12:20:47.295Z,10.80
2022-12-22T12:23:36.486Z,10.80
2022-12-22T12:26:09.090Z,10.80
2022-12-22T12:28:50.526Z,10.80
2022-12-22T12:31:26.327Z,10.80
2022-12-22T12:34:02.039Z,10.80
2022-12-22T12:36:41.852Z,10.80
2022-12-22T12:39:20.439Z,10.90
2022-12-22T12:41:58.947Z,11.00
2022-12-22T12:44:32.623Z,11.00
2022-12-22T12:47:08.958Z,11.10
2022-12-22T12:50:05.430Z,11.20
2022-12-22T12:53:16.734Z,11.10
2022-12-22T12:56:02.801Z,11.00
2022-12-22T12:58:52.797Z,10.90
2022-12-22T13:01:54.807Z,11.00
2022-12-22T13:05:06.066Z,11.10
2022-12-22T13:08:11.203Z,11.20
2022-12-22T13:10:42.675Z,11.20
2022-12-22T13:13:13.293Z,11.30
2022-12-22T13:15:45.196Z,11.30
2022-12-22T13:18:49.441Z,11.30
2022-12-22T13:24:25.775Z,11.10
2022-12-22T13:27:03.005Z,11.10
2022-12-22T13:29:42.986Z,11.00
2022-12-22T13:32:30.583Z,11.00
2022-12-22T13:37:57.953Z,11.00
2022-12-22T13:40:27.793Z,11.00
2022-12-22T13:42:58.714Z,11.00
2022-12-22T13:45:36.943Z,11.00
2022-12-22T13:48:10.843Z,11.00
2022-12-22T13:50:43.024Z,11.00
2022-12-22T13:56:00.757Z,11.00
2022-12-22T13:58:31.684Z,11.00
2022-12-22T14:01:05.625Z,11.00
2022-12-22T14:03:59.019Z,11.00
2022-12-22T14:06:28.527Z,11.10
2022-12-22T14:09:11.584Z,11.20
2022-12-22T14:11:44.098Z,11.20
2022-12-22T14:14:19.618Z,11.20
2022-12-22T14:16:49.749Z,11.20
2022-12-22T14:19:20.188Z,11.20
2022-12-22T14:21:51.599Z,11.30
2022-12-22T14:24:26.346Z,11.20
2022-12-22T14:26:55.014Z,11.20
2022-12-22T14:29:28.268Z,11.30
2022-12-22T14:31:58.097Z,11.40
2022-12-22T14:34:30.881Z,11.30
2022-12-22T14:36:59.678Z,11.20
2022-12-22T14:39:31.878Z,11.30
2022-12-22T14:42:02.761Z,11.20
2022-12-22T14:44:37.715Z,11.20
2022-12-22T14:47:18.388Z,11.10
2022-12-22T14:49:50.514Z,11.10
2022-12-22T14:52:23.826Z,11.00
2022-12-22T14:54:54.997Z,11.00
2022-12-22T14:57:30.167Z,10.90
2022-12-22T15:00:06.189Z,10.90
2022-12-22T15:02:39.621Z,10.90
2022-12-22T15:05:17.090Z,10.90
2022-12-22T15:08:07.422Z,10.80
2022-12-22T15:10:40.994Z,10.80
2022-12-22T15:13:19.385Z,10.80
2022-12-22T15:15:47.560Z,10.80
2022-12-22T15:18:16.185Z,10.80
2022-12-22T15:20:45.517Z,10.70
2022-12-22T15:23:18.907Z,10.70
2022-12-22T15:25:48.577Z,10.70
2022-12-22T15:28:17.806Z,10.80
2022-12-22T15:30:46.061Z,10.70
2022-12-22T15:33:16.859Z,10.70
2022-12-22T15:35:46.533Z,10.70
2022-12-22T15:38:16.405Z,10.70
2022-12-22T15:40:44.820Z,10.70
2022-12-22T15:43:53.891Z,10.70
2022-12-22T15:46:05.724Z,10.70
2022-12-22T15:48:37.330Z,10.70
2022-12-22T15:51:07.740Z,10.60
2022-12-22T15:53:38.054Z,10.70
2022-12-22T15:56:10.124Z,10.70
2022-12-22T15:58:44.382Z,10.60
2022-12-22T16:01:13.663Z,10.60
2022-12-22T16:03:41.963Z,10.60
2022-12-22T16:06:14.950Z,10.60
2022-12-22T16:08:47.096Z,10.60
2022-12-22T16:11:16.668Z,10.60
2022-12-22T16:13:46.427Z,10.60
2022-12-22T16:16:14.679Z,10.60
2022-12-22T16:18:45.136Z,10.50
2022-12-22T16:21:17.721Z,10.60
2022-12-22T16:23:48.917Z,10.50
2022-12-22T16:26:20.666Z,10.50
2022-12-22T16:28:50.078Z,10.50
2022-12-22T16:31:20.876Z,10.60
2022-12-22T16:33:49.595Z,10.50
2022-12-22T16:36:18.079Z,10.50
2022-12-22T16:38:47.480Z,10.50
2022-12-22T16:41:21.543Z,10.50
2022-12-22T16:43:53.317Z,10.50
2022-12-22T16:46:23.925Z,10.50
2022-12-22T16:48:56.712Z,10.50
2022-12-22T16:51:28.101Z,10.40
2022-12-22T16:53:56.864Z,10.40
2022-12-22T16:56:26.777Z,10.40
2022-12-22T16:58:57.029Z,10.40
2022-12-22T17:01:35.953Z,10.40
2022-12-22T17:04:08.442Z,10.40
2022-12-22T17:06:37.505Z,10.40
2022-12-22T17:09:08.516Z,10.40
2022-12-22T17:11:38.786Z,10.40
2022-12-22T17:14:19.522Z,10.30
2022-12-22T17:16:47.698Z,10.40
2022-12-22T17:19:16.324Z,10.40
2022-12-22T17:21:47.327Z,10.40
2022-12-22T17:24:24.363Z,10.40
2022-12-22T17:26:55.874Z,10.40
2022-12-22T17:29:25.839Z,10.30
2022-12-22T17:31:56.689Z,10.30
2022-12-22T17:34:25.202Z,10.30
2022-12-22T17:36:57.833Z,10.30
2022-12-22T17:39:27.782Z,10.30
2022-12-22T17:41:57.362Z,10.30
2022-12-22T17:44:28.803Z,10.30
2022-12-22T17:46:57.259Z,10.40
2022-12-22T17:49:25.374Z,10.30
2022-12-22T17:51:53.811Z,10.30
2022-12-22T17:54:24.866Z,10.20
2022-12-22T17:56:59.994Z,10.20
2022-12-22T17:59:29.381Z,10.20
2022-12-22T18:02:03.288Z,10.20
2022-12-22T18:04:31.325Z,10.20
2022-12-22T18:06:59.952Z,10.10
2022-12-22T18:09:28.126Z,10.20
2022-12-22T18:11:56.382Z,10.10
2022-12-22T18:14:27.502Z,10.20
2022-12-22T18:16:56.906Z,10.20
2022-12-22T18:19:25.065Z,10.10
2022-12-22T18:21:53.108Z,10.10
2022-12-22T18:24:21.730Z,10.20
2022-12-22T18:26:50.317Z,10.10
2022-12-22T18:29:19.544Z,10.20
2022-12-22T18:31:47.700Z,10.20
2022-12-22T18:34:18.413Z,10.10
2022-12-22T18:36:47.789Z,10.10
2022-12-22T18:39:20.105Z,10.00
2022-12-22T18:41:48.495Z,10.00
2022-12-22T18:44:17.780Z,10.00
2022-12-22T18:46:47.609Z,10.00
2022-12-22T18:49:23.839Z,10.00
2022-12-22T18:51:51.870Z,10.00
2022-12-22T18:54:30.731Z,9.80
2022-12-22T18:56:58.740Z,9.80
2022-12-22T18:59:29.740Z,9.80
2022-12-22T19:02:01.966Z,9.70
2022-12-22T19:04:31.385Z,9.60
2022-12-22T19:06:59.615Z,9.60
2022-12-22T19:09:27.925Z,9.60
2022-12-22T19:11:56.005Z,9.60
2022-12-22T19:14:26.277Z,9.50
2022-12-22T19:16:55.870Z,9.50
2022-12-22T19:19:25.756Z,9.60
2022-12-22T19:21:56.506Z,9.40
2022-12-22T19:24:26.118Z,9.50
2022-12-22T19:26:54.078Z,9.40
2022-12-22T19:29:22.154Z,9.40
2022-12-22T19:31:50.398Z,9.40
2022-12-22T19:34:21.974Z,9.40
2022-12-22T19:36:50.052Z,9.40
2022-12-22T19:39:19.646Z,9.40
2022-12-22T19:41:50.876Z,9.30
2022-12-22T19:44:22.089Z,9.40
2022-12-22T19:46:50.755Z,9.40
2022-12-22T19:49:22.402Z,9.40
2022-12-22T19:51:51.059Z,9.50
2022-12-22T19:54:20.474Z,9.40
2022-12-22T19:56:52.034Z,9.50
2022-12-22T19:59:30.914Z,9.50
2022-12-22T20:02:02.089Z,9.50
2022-12-22T20:04:30.187Z,9.50
2022-12-22T20:06:58.216Z,9.60
2022-12-22T20:09:30.181Z,9.60
2022-12-22T20:11:58.402Z,9.60
2022-12-22T20:14:28.904Z,9.70
2022-12-22T20:16:57.033Z,9.70
2022-12-22T20:19:26.463Z,9.70
2022-12-22T20:21:54.824Z,9.80
2022-12-22T20:24:27.757Z,9.80
2022-12-22T20:26:57.107Z,9.90
2022-12-22T20:29:25.640Z,9.90
2022-12-22T20:31:53.805Z,10.00
2022-12-22T20:34:21.843Z,10.00
2022-12-22T20:36:50.342Z,10.00
2022-12-22T20:39:20.612Z,10.10
2022-12-22T20:41:53.385Z,10.10
2022-12-22T20:44:26.026Z,10.10
2022-12-22T20:46:54.161Z,10.10
2022-12-22T20:49:23.449Z,10.20
2022-12-22T20:51:51.817Z,10.20
2022-12-22T20:54:19.967Z,10.20
2022-12-22T20:56:47.954Z,10.20
2022-12-22T20:59:18.858Z,10.20
2022-12-22T21:01:49.994Z,10.20
2022-12-22T21:04:20.609Z,10.20
2022-12-22T21:06:51.556Z,10.20
2022-12-22T21:09:20.646Z,10.20
2022-12-22T21:11:48.662Z,10.20
2022-12-22T21:14:17.621Z,10.20
2022-12-22T21:16:45.741Z,10.20
2022-12-22T21:19:19.828Z,10.10
2022-12-22T21:21:48.060Z,10.20
2022-12-22T21:24:18.502Z,10.20
2022-12-22T21:26:49.682Z,10.20
2022-12-22T21:29:20.555Z,10.20
2022-12-22T21:31:55.911Z,10.20
2022-12-22T21:34:25.320Z,10.20
2022-12-22T21:36:58.391Z,10.30
2022-12-22T21:39:32.352Z,10.20
2022-12-22T21:42:04.525Z,10.20
2022-12-22T21:44:34.507Z,10.10
2022-12-22T21:47:05.351Z,10.10
2022-12-22T21:49:34.827Z,10.10
2022-12-22T21:52:02.769Z,10.10
2022-12-22T21:54:33.955Z,10.10
2022-12-22T21:57:01.911Z,10.20
2022-12-22T21:59:31.969Z,10.10
2022-12-22T22:02:02.039Z,10.00
2022-12-22T22:04:30.061Z,10.00
2022-12-22T22:06:59.359Z,9.90
2022-12-22T22:09:27.398Z,9.90
2022-12-22T22:12:12.705Z,9.80
2022-12-22T22:14:40.725Z,9.80
2022-12-22T22:17:10.217Z,9.70
2022-12-22T22:19:38.730Z,9.80
2022-12-22T22:22:08.197Z,9.70
2022-12-22T22:24:36.704Z,9.70
2022-12-22T22:27:04.914Z,9.80
2022-12-22T22:29:32.951Z,9.80
2022-12-22T22:32:00.920Z,9.70
2022-12-22T22:34:29.308Z,9.80
2022-12-22T22:36:57.453Z,9.70
2022-12-22T22:39:30.546Z,9.70
2022-12-22T22:41:58.557Z,9.70
2022-12-22T22:44:26.545Z,9.80
2022-12-22T22:46:54.684Z,9.80
2022-12-22T22:49:28.365Z,9.70
2022-12-22T22:51:58.420Z,9.70
2022-12-22T22:54:27.644Z,9.80
2022-12-22T22:56:57.985Z,9.80
2022-12-22T22:59:26.936Z,9.80
2022-12-22T23:01:55.921Z,9.70
2022-12-22T23:04:25.406Z,9.80
2022-12-22T23:06:53.395Z,9.70
2022-12-22T23:09:21.455Z,9.70
2022-12-22T23:11:52.447Z,9.70
2022-12-22T23:14:20.930Z,9.50
2022-12-22T23:16:51.748Z,9.50
2022-12-22T23:19:20.045Z,9.50
2022-12-22T23:21:48.117Z,9.40
2022-12-22T23:24:17.056Z,9.40
2022-12-22T23:26:45.024Z,9.30
2022-12-22T23:29:14.364Z,9.10
2022-12-22T23:31:42.365Z,8.80
2022-12-22T23:34:12.596Z,8.40
2022-12-22T23:36:41.657Z,8.20
2022-12-22T23:39:10.238Z,8.20
2022-12-22T23:41:38.207Z,8.20
2022-12-22T23:44:06.213Z,8.20
2022-12-22T23:46:35.784Z,8.20
2022-12-22T23:49:04.022Z,8.20
2022-12-22T23:51:32.026Z,8.20
2022-12-22T23:54:03.619Z,8.10
2022-12-22T23:56:31.765Z,8.10
2022-12-22T23:59:00.246Z,8.00
